Time;durP1;ratioP1;P1;durP2;ratioP2;P2;SDS_P1;SDS_P2;PMS_P1;PMS_P2;Temp;Humidity;BMP_temperature;BMP_pressure;BME280_temperature;BME280_humidity;BME280_pressure;Samples;Min_cycle;Max_cycle;Signal;HPM_P1;HPM_P2
2023/04/25 00:01:35;;;;;;;2.50;0.70;;;21.50;36.70;;;;;;5016321;28;20088;-46
2023/04/25 00:04:02;;;;;;;3.22;1.08;;;21.60;36.70;;;;;;5018649;28;20041;-49
2023/04/25 00:06:31;;;;;;;2.42;0.88;;;21.50;36.70;;;;;;5020194;28;20178;-49
2023/04/25 00:08:57;;;;;;;3.22;0.82;;;21.60;36.70;;;;;;5018355;28;20036;-45
2023/04/25 00:11:23;;;;;;;1.80;0.70;;;21.50;36.60;;;;;;5015668;28;21618;-49
2023/04/25 00:13:52;;;;;;;3.67;1.08;;;21.50;36.60;;;;;;5016495;28;21474;-48
2023/04/25 00:16:18;;;;;;;1.77;0.80;;;21.50;36.60;;;;;;5020763;28;20167;-49
2023/04/25 00:18:46;;;;;;;3.20;1.08;;;21.50;36.60;;;;;;5017248;28;20025;-49
2023/04/25 00:21:11;;;;;;;2.03;1.00;;;21.50;36.50;;;;;;5016951;28;20276;-47
2023/04/25 00:23:38;;;;;;;2.65;0.82;;;21.50;36.50;;;;;;5015569;28;20044;-48
2023/04/25 00:26:04;;;;;;;2.80;0.95;;;21.50;36.50;;;;;;5017353;28;20117;-47
2023/04/25 00:28:30;;;;;;;1.58;0.70;;;21.50;36.50;;;;;;5018481;28;20048;-49
2023/04/25 00:30:56;;;;;;;2.92;0.88;;;21.50;36.50;;;;;;5017903;28;20417;-48
2023/04/25 00:33:22;;;;;;;2.30;0.90;;;21.50;36.50;;;;;;5016826;28;20457;-52
2023/04/25 00:35:47;;;;;;;3.15;1.13;;;21.50;36.40;;;;;;5018271;28;20466;-51
2023/04/25 00:38:13;;;;;;;3.17;0.98;;;21.50;36.40;;;;;;5016569;28;20021;-46
2023/04/25 00:40:39;;;;;;;3.95;1.00;;;21.50;36.40;;;;;;5016403;28;20040;-51
2023/04/25 00:43:05;;;;;;;2.22;0.90;;;21.50;36.40;;;;;;5023190;28;20487;-48
2023/04/25 00:45:31;;;;;;;2.85;1.00;;;21.40;36.30;;;;;;5024421;28;20143;-50
2023/04/25 00:47:57;;;;;;;2.97;1.00;;;21.50;36.30;;;;;;5020605;28;20413;-49
2023/04/25 00:50:23;;;;;;;5.40;1.45;;;21.50;36.30;;;;;;5022822;28;20128;-54
2023/04/25 00:52:50;;;;;;;4.97;1.30;;;21.50;36.30;;;;;;5021400;28;20025;-50
2023/04/25 00:55:16;;;;;;;3.13;1.30;;;21.40;36.20;;;;;;5020056;28;20114;-47
2023/04/25 00:57:42;;;;;;;4.82;1.60;;;21.40;36.20;;;;;;5016823;28;20199;-51
2023/04/25 01:00:10;;;;;;;2.75;1.10;;;21.40;36.20;;;;;;5015696;28;20442;-50
2023/04/25 01:02:37;;;;;;;3.72;1.17;;;21.40;36.20;;;;;;5023157;28;20049;-51
2023/04/25 01:05:03;;;;;;;2.45;1.00;;;21.40;36.30;;;;;;5022825;28;20067;-51
2023/04/25 01:07:30;;;;;;;2.63;0.90;;;21.40;36.30;;;;;;5019509;28;20060;-50
2023/04/25 01:09:56;;;;;;;4.18;1.50;;;21.40;36.30;;;;;;5024311;28;20039;-48
2023/04/25 01:12:23;;;;;;;3.50;1.10;;;21.40;36.30;;;;;;5026606;28;20047;-48
2023/04/25 01:14:49;;;;;;;3.35;1.05;;;21.40;36.30;;;;;;5026579;28;20060;-49
2023/04/25 01:17:15;;;;;;;3.55;1.33;;;21.40;36.40;;;;;;5024503;28;20078;-47
2023/04/25 01:19:42;;;;;;;2.58;0.80;;;21.40;36.40;;;;;;5023447;28;20198;-50
2023/04/25 01:22:10;;;;;;;2.38;0.90;;;21.40;36.40;;;;;;5019993;28;20037;-48
2023/04/25 01:24:36;;;;;;;3.45;1.00;;;21.40;36.40;;;;;;5020990;28;20052;-48
2023/04/25 01:27:02;;;;;;;3.35;1.00;;;21.40;36.40;;;;;;5021862;28;20593;-48
2023/04/25 01:29:29;;;;;;;3.47;1.33;;;21.30;36.40;;;;;;5017744;28;20130;-46
2023/04/25 01:31:55;;;;;;;5.28;1.20;;;21.40;36.40;;;;;;5018847;28;20043;-48
2023/04/25 01:34:21;;;;;;;2.88;0.90;;;21.30;36.40;;;;;;5019296;28;20033;-51
2023/04/25 01:36:51;;;;;;;3.40;1.10;;;21.30;36.40;;;;;;5046183;28;21856;-49
2023/04/25 01:39:18;;;;;;;3.38;1.20;;;21.30;36.40;;;;;;5017221;28;20060;-53
2023/04/25 01:41:45;;;;;;;3.17;1.35;;;21.30;36.40;;;;;;5023471;28;20170;-49
2023/04/25 01:44:12;;;;;;;3.47;1.25;;;21.30;36.40;;;;;;5021291;28;20029;-51
2023/04/25 01:46:38;;;;;;;5.28;1.13;;;21.30;36.40;;;;;;5020976;28;20137;-51
2023/04/25 01:49:04;;;;;;;2.40;1.00;;;21.30;36.40;;;;;;5017809;28;20151;-48
2023/04/25 01:51:31;;;;;;;3.38;1.33;;;21.30;36.40;;;;;;5020039;28;20155;-48
2023/04/25 01:53:58;;;;;;;2.97;1.08;;;21.30;36.40;;;;;;5047223;28;20037;-54
2023/04/25 01:56:24;;;;;;;3.88;1.35;;;21.30;36.40;;;;;;5019755;28;20067;-48
2023/04/25 01:58:51;;;;;;;5.65;1.48;;;21.30;36.40;;;;;;5017394;28;20041;-46
2023/04/25 02:01:19;;;;;;;2.92;1.08;;;21.30;36.30;;;;;;5024634;28;20047;-48
2023/04/25 02:03:59;;;;;;;6.70;1.25;;;21.30;36.30;;;;;;5019803;28;20580;-48
2023/04/25 02:06:33;;;;;;;2.45;0.70;;;21.30;36.30;;;;;;5020996;28;20128;-50
2023/04/25 02:08:59;;;;;;;2.97;1.15;;;21.20;36.20;;;;;;5017814;28;20051;-52
2023/04/25 02:11:25;;;;;;;4.32;1.23;;;21.20;36.20;;;;;;5048281;28;20083;-50
2023/04/25 02:14:19;;;;;;;3.58;1.10;;;21.20;36.20;;;;;;5020207;28;20037;-47
2023/04/25 02:16:52;;;;;;;3.80;1.23;;;21.20;36.20;;;;;;5017340;28;20625;-48
2023/04/25 02:19:18;;;;;;;3.47;1.08;;;21.20;36.10;;;;;;5044813;28;20041;-52
2023/04/25 02:21:46;;;;;;;4.45;1.42;;;21.20;36.10;;;;;;5020263;28;20060;-48
2023/04/25 02:24:12;;;;;;;2.35;1.08;;;21.20;36.10;;;;;;5020295;28;20044;-50
2023/04/25 02:26:38;;;;;;;4.25;1.60;;;21.20;36.10;;;;;;5015729;28;20095;-52
2023/04/25 02:29:07;;;;;;;3.13;0.98;;;21.20;36.10;;;;;;5047170;28;20111;-50
2023/04/25 02:31:32;;;;;;;2.58;1.00;;;21.20;36.10;;;;;;5044214;28;20120;-49
2023/04/25 02:33:58;;;;;;;3.00;1.10;;;21.20;36.10;;;;;;5016882;28;20028;-50
2023/04/25 02:36:24;;;;;;;4.28;1.25;;;21.20;36.10;;;;;;5016884;28;20518;-48
2023/04/25 02:38:50;;;;;;;4.60;1.23;;;21.20;36.10;;;;;;5021353;28;20029;-47
2023/04/25 02:41:16;;;;;;;3.65;1.20;;;21.20;36.10;;;;;;5017827;28;20067;-48
2023/04/25 02:43:42;;;;;;;4.95;1.58;;;21.20;36.00;;;;;;5019767;28;20033;-49
2023/04/25 02:46:08;;;;;;;3.03;1.20;;;21.20;36.00;;;;;;5018184;28;20052;-50
2023/04/25 02:48:33;;;;;;;3.85;1.23;;;21.20;36.00;;;;;;5026851;28;20033;-46
2023/04/25 02:50:59;;;;;;;5.22;1.30;;;21.20;36.00;;;;;;5026946;28;20151;-49
2023/04/25 02:53:25;;;;;;;3.60;1.10;;;21.10;35.90;;;;;;5024650;28;20084;-48
2023/04/25 02:55:53;;;;;;;2.90;1.10;;;21.10;35.90;;;;;;5024158;28;20033;-54
2023/04/25 02:58:18;;;;;;;4.75;1.40;;;21.10;35.80;;;;;;5024881;28;20079;-51
2023/04/25 03:00:50;;;;;;;2.97;1.15;;;21.20;35.90;;;;;;5024366;28;20033;-51
2023/04/25 03:03:17;;;;;;;3.40;1.15;;;21.10;35.80;;;;;;5024019;28;20019;-54
2023/04/25 03:05:45;;;;;;;4.25;1.17;;;21.10;35.70;;;;;;5022810;28;20715;-53
2023/04/25 03:08:11;;;;;;;4.35;1.30;;;21.10;35.70;;;;;;5020755;28;20413;-47
2023/04/25 03:10:38;;;;;;;4.03;1.40;;;21.10;35.70;;;;;;5017230;28;20048;-50
2023/04/25 03:13:07;;;;;;;3.95;1.25;;;21.10;35.70;;;;;;5032315;28;20154;-49
2023/04/25 03:15:35;;;;;;;2.58;1.10;;;21.10;35.70;;;;;;5021866;28;20044;-48
2023/04/25 03:18:01;;;;;;;3.97;1.42;;;21.10;35.70;;;;;;5023414;28;20045;-53
2023/04/25 03:20:27;;;;;;;4.95;1.40;;;21.10;35.60;;;;;;5023472;28;20059;-47
2023/04/25 03:22:53;;;;;;;2.70;1.10;;;21.10;35.60;;;;;;5020678;28;20737;-50
2023/04/25 03:25:19;;;;;;;3.08;0.98;;;21.10;35.60;;;;;;5021732;28;20194;-49
2023/04/25 03:27:45;;;;;;;4.00;1.20;;;21.10;35.50;;;;;;5017510;28;20033;-46
2023/04/25 03:30:12;;;;;;;4.25;1.40;;;21.00;35.40;;;;;;5018499;28;20039;-51
2023/04/25 03:32:39;;;;;;;5.40;1.70;;;21.10;35.60;;;;;;5016912;28;20126;-49
2023/04/25 03:35:06;;;;;;;3.60;1.30;;;21.10;35.50;;;;;;5017981;28;20083;-50
2023/04/25 03:37:32;;;;;;;3.47;1.30;;;21.10;35.50;;;;;;5014463;28;20022;-51
2023/04/25 03:39:58;;;;;;;3.05;1.20;;;21.00;35.40;;;;;;5017955;28;20033;-47
2023/04/25 03:42:31;;;;;;;2.58;1.15;;;21.00;35.40;;;;;;5022046;28;20614;-46
2023/04/25 03:44:57;;;;;;;4.93;1.20;;;21.00;35.50;;;;;;5022669;28;20167;-48
2023/04/25 03:47:23;;;;;;;3.72;1.40;;;21.00;35.50;;;;;;5039106;28;20033;-50
2023/04/25 03:49:51;;;;;;;4.63;1.58;;;21.00;35.40;;;;;;5025012;28;20029;-48
2023/04/25 03:52:19;;;;;;;2.65;1.10;;;21.00;35.40;;;;;;5036954;28;20053;-47
2023/04/25 03:54:46;;;;;;;3.25;1.15;;;21.00;35.40;;;;;;5019489;28;20132;-49
2023/04/25 03:57:18;;;;;;;2.97;1.42;;;21.00;35.40;;;;;;5015590;28;20105;-48
2023/04/25 03:59:44;;;;;;;3.88;1.23;;;21.00;35.40;;;;;;5016745;28;21369;-52
2023/04/25 04:02:12;;;;;;;4.88;1.30;;;21.00;35.40;;;;;;5014963;28;20415;-49
2023/04/25 04:04:39;;;;;;;3.33;1.15;;;21.00;35.40;;;;;;5018813;28;20047;-47
2023/04/25 04:07:05;;;;;;;3.72;1.08;;;21.00;35.40;;;;;;5022472;28;20025;-47
2023/04/25 04:09:35;;;;;;;4.05;1.33;;;21.00;35.40;;;;;;5020434;28;20025;-47
2023/04/25 04:12:05;;;;;;;3.15;1.33;;;21.00;35.30;;;;;;5021571;28;20056;-49
2023/04/25 04:14:32;;;;;;;3.90;1.30;;;21.00;35.30;;;;;;5021522;28;20124;-48
2023/04/25 04:16:58;;;;;;;4.53;1.42;;;21.00;35.30;;;;;;5021172;28;20036;-51
2023/04/25 04:19:25;;;;;;;3.45;1.27;;;21.00;35.40;;;;;;5021309;28;20076;-46
2023/04/25 04:22:01;;;;;;;4.22;1.33;;;21.00;35.30;;;;;;5021035;28;20314;-48
2023/04/25 04:24:27;;;;;;;2.65;1.20;;;21.00;35.30;;;;;;5017849;28;20033;-50
2023/04/25 04:27:12;;;;;;;2.67;1.10;;;21.00;35.30;;;;;;5019809;28;20025;-47
2023/04/25 04:29:53;;;;;;;4.07;1.00;;;21.00;35.30;;;;;;5026403;28;20047;-50
2023/04/25 04:32:41;;;;;;;4.63;1.27;;;21.00;35.30;;;;;;5022214;28;20110;-49
2023/04/25 04:35:08;;;;;;;4.28;1.42;;;20.90;35.20;;;;;;5018053;28;20142;-48
2023/04/25 04:37:36;;;;;;;3.08;1.13;;;21.00;35.20;;;;;;5019510;28;20713;-50
2023/04/25 04:40:04;;;;;;;3.60;1.20;;;20.90;35.20;;;;;;5030897;28;20041;-46
2023/04/25 04:42:57;;;;;;;4.80;1.20;;;21.00;35.20;;;;;;5015596;28;20048;-48
2023/04/25 04:45:46;;;;;;;3.30;1.30;;;20.90;35.20;;;;;;5014842;28;20137;-50
2023/04/25 04:48:35;;;;;;;3.63;1.45;;;20.90;35.20;;;;;;5017136;28;20118;-47
2023/04/25 04:51:17;;;;;;;3.45;1.27;;;20.90;35.20;;;;;;5014521;28;20135;-48
2023/04/25 04:54:02;;;;;;;3.13;1.30;;;20.90;35.10;;;;;;5023749;28;20048;-50
2023/04/25 04:56:41;;;;;;;5.80;1.15;;;20.90;35.10;;;;;;5019175;28;20028;-50
2023/04/25 04:59:26;;;;;;;3.55;1.65;;;20.90;35.20;;;;;;5017314;28;20114;-46
2023/04/25 05:02:06;;;;;;;4.28;1.75;;;20.90;35.20;;;;;;5022270;28;20029;-46
2023/04/25 05:04:56;;;;;;;3.40;1.42;;;20.90;35.20;;;;;;5020787;28;20064;-49
2023/04/25 05:07:40;;;;;;;3.28;1.23;;;20.90;35.20;;;;;;5026717;28;20048;-45
2023/04/25 05:10:23;;;;;;;2.58;1.15;;;20.90;35.20;;;;;;5022575;28;20121;-44
2023/04/25 05:13:24;;;;;;;3.22;1.52;;;20.90;35.20;;;;;;5009135;28;20123;-49
2023/04/25 05:16:20;;;;;;;3.60;1.10;;;20.80;35.20;;;;;;4970468;28;20053;-50
2023/04/25 05:19:09;;;;;;;4.30;1.20;;;20.80;35.20;;;;;;5022172;28;20100;-47
2023/04/25 05:22:02;;;;;;;5.63;1.40;;;20.90;35.20;;;;;;5022549;28;20140;-50
2023/04/25 05:24:41;;;;;;;3.72;1.10;;;20.80;35.20;;;;;;5019490;28;20171;-45
2023/04/25 05:27:25;;;;;;;;;;;20.80;35.20;;;;;;5022690;28;20088;-48
2023/04/25 05:30:12;;;;;;;2.60;1.10;;;20.80;35.20;;;;;;5033844;28;19916;-52
2023/04/25 05:33:01;;;;;;;4.80;1.10;;;20.80;35.20;;;;;;5019109;28;20049;-49
2023/04/25 05:35:27;;;;;;;4.25;1.25;;;20.80;35.20;;;;;;5021129;28;20041;-48
2023/04/25 05:37:53;;;;;;;3.15;1.13;;;20.80;35.30;;;;;;5018666;28;20416;-52
2023/04/25 05:40:24;;;;;;;4.13;1.40;;;20.80;35.30;;;;;;5043784;28;20033;-51
2023/04/25 05:42:59;;;;;;;4.43;1.30;;;20.80;35.30;;;;;;5016632;28;20025;-49
2023/04/25 05:45:35;;;;;;;3.83;1.40;;;20.80;35.30;;;;;;5015316;28;20161;-48
2023/04/25 05:48:04;;;;;;;4.22;1.38;;;20.80;35.30;;;;;;5019414;28;20328;-45
2023/04/25 05:50:41;;;;;;;3.40;1.23;;;20.80;35.30;;;;;;5019773;28;20033;-50
2023/04/25 05:53:23;;;;;;;2.75;1.27;;;20.80;35.30;;;;;;5018930;28;21505;-46
2023/04/25 05:55:55;;;;;;;2.83;0.90;;;20.80;35.30;;;;;;5017784;28;20052;-51
2023/04/25 05:58:24;;;;;;;2.40;1.10;;;20.80;35.30;;;;;;5017574;28;20033;-50
2023/04/25 06:00:50;;;;;;;2.90;0.98;;;20.80;35.30;;;;;;5017442;28;20104;-49
2023/04/25 06:03:16;;;;;;;3.70;1.42;;;20.80;35.30;;;;;;5017425;28;20032;-52
2023/04/25 06:05:44;;;;;;;2.67;1.00;;;20.80;35.30;;;;;;5019133;28;20135;-50
2023/04/25 06:08:10;;;;;;;3.53;0.95;;;20.80;35.30;;;;;;5024909;28;20101;-49
2023/04/25 06:10:37;;;;;;;4.25;1.10;;;20.80;35.30;;;;;;5018714;28;20065;-51
2023/04/25 06:13:04;;;;;;;3.85;1.60;;;20.80;35.30;;;;;;5020564;28;20452;-47
2023/04/25 06:15:32;;;;;;;5.30;1.60;;;20.80;35.30;;;;;;5038198;28;20032;-51
2023/04/25 06:18:03;;;;;;;2.17;1.02;;;20.80;35.40;;;;;;5032578;28;20047;-48
2023/04/25 06:20:29;;;;;;;2.38;1.00;;;20.90;35.40;;;;;;5023965;28;20033;-48
2023/04/25 06:22:57;;;;;;;2.90;1.30;;;20.90;35.40;;;;;;5033304;28;20049;-51
2023/04/25 06:25:39;;;;;;;1.70;0.93;;;20.80;35.40;;;;;;5033030;28;20441;-48
2023/04/25 06:28:05;;;;;;;3.38;1.02;;;20.90;35.40;;;;;;5032947;28;20033;-52
2023/04/25 06:30:32;;;;;;;2.42;1.20;;;20.90;35.40;;;;;;5032545;28;20031;-47
2023/04/25 06:33:04;;;;;;;2.90;1.08;;;20.90;35.40;;;;;;5032581;28;20108;-48
2023/04/25 06:35:31;;;;;;;3.50;1.10;;;20.90;35.40;;;;;;5031600;28;20136;-49
2023/04/25 06:37:58;;;;;;;4.07;1.05;;;20.90;35.40;;;;;;5035598;28;20089;-50
2023/04/25 06:40:24;;;;;;;3.05;1.05;;;20.90;35.50;;;;;;5034527;28;20064;-47
2023/04/25 06:42:50;;;;;;;3.15;1.33;;;20.90;35.70;;;;;;5033888;28;20025;-51
2023/04/25 06:45:36;;;;;;;1.80;0.80;;;20.90;35.80;;;;;;5032462;28;20059;-50
2023/04/25 06:48:03;;;;;;;3.00;1.20;;;21.00;36.00;;;;;;5032869;28;20126;-46
2023/04/25 06:50:30;;;;;;;2.42;0.93;;;21.00;36.00;;;;;;5036830;28;20060;-49
2023/04/25 06:52:56;;;;;;;2.83;1.10;;;21.00;36.10;;;;;;5029324;28;20037;-46
2023/04/25 06:55:22;;;;;;;5.13;1.33;;;21.00;36.20;;;;;;5067711;28;20029;-52
2023/04/25 06:58:11;;;;;;;4.78;1.35;;;21.00;36.20;;;;;;5043971;28;20072;-47
2023/04/25 07:00:52;;;;;;;5.38;0.98;;;21.10;36.20;;;;;;5061788;28;20134;-57
2023/04/25 07:03:20;;;;;;;3.90;1.20;;;21.10;36.10;;;;;;5031422;28;20213;-58
2023/04/25 07:05:46;;;;;;;3.30;1.13;;;21.10;36.20;;;;;;5031884;28;20116;-57
2023/04/25 07:08:12;;;;;;;2.63;1.15;;;21.20;36.40;;;;;;5035609;28;20440;-50
2023/04/25 07:10:38;;;;;;;3.90;1.33;;;21.20;36.40;;;;;;5032966;28;20037;-51
2023/04/25 07:13:04;;;;;;;3.63;1.20;;;21.30;36.40;;;;;;5032831;28;20037;-49
2023/04/25 07:15:30;;;;;;;2.50;0.90;;;21.30;36.30;;;;;;5030697;28;20147;-49
2023/04/25 07:17:57;;;;;;;3.72;1.00;;;21.30;36.10;;;;;;5032425;28;20390;-50
2023/04/25 07:20:23;;;;;;;2.13;0.80;;;21.40;36.10;;;;;;5031579;28;20041;-52
2023/04/25 07:22:49;;;;;;;3.75;1.20;;;21.40;35.90;;;;;;5040086;28;20475;-49
2023/04/25 07:25:16;;;;;;;3.55;1.20;;;21.40;35.80;;;;;;5043888;28;20041;-50
2023/04/25 07:27:42;;;;;;;2.45;1.00;;;21.50;35.80;;;;;;5045660;28;20021;-51
2023/04/25 07:30:15;;;;;;;2.80;1.02;;;21.50;35.70;;;;;;5048318;28;20024;-51
2023/04/25 07:32:40;;;;;;;3.63;1.27;;;21.60;35.60;;;;;;5048601;28;20097;-49
2023/04/25 07:35:07;;;;;;;2.38;1.02;;;21.60;35.60;;;;;;5048323;28;20028;-57
2023/04/25 07:37:34;;;;;;;2.15;0.88;;;21.60;35.50;;;;;;5040062;28;20031;-52
2023/04/25 07:40:06;;;;;;;3.60;0.90;;;21.70;35.60;;;;;;5033054;28;21508;-51
2023/04/25 07:42:32;;;;;;;2.10;1.00;;;21.70;35.70;;;;;;5033399;28;20049;-50
2023/04/25 07:44:58;;;;;;;2.72;1.02;;;21.80;35.70;;;;;;5057672;28;20056;-48
2023/04/25 07:47:24;;;;;;;5.07;0.93;;;21.80;35.60;;;;;;5040046;28;20029;-48
2023/04/25 07:49:51;;;;;;;2.83;1.25;;;21.80;35.60;;;;;;5026329;28;20033;-50
2023/04/25 07:52:17;;;;;;;3.28;1.00;;;21.80;35.60;;;;;;5030622;28;20392;-52
2023/04/25 07:54:49;;;;;;;3.05;1.20;;;21.90;35.60;;;;;;5029381;28;20025;-51
2023/04/25 07:57:20;;;;;;;2.50;1.00;;;21.90;35.50;;;;;;5029755;28;20037;-51
2023/04/25 07:59:47;;;;;;;2.60;0.90;;;21.90;35.40;;;;;;5026626;28;20056;-50
2023/04/25 08:02:13;;;;;;;2.88;0.90;;;21.90;35.30;;;;;;5027492;28;20116;-51
2023/04/25 08:04:40;;;;;;;3.65;0.80;;;21.90;35.20;;;;;;5032090;28;20025;-48
2023/04/25 08:07:08;;;;;;;4.32;0.98;;;21.90;35.10;;;;;;5035680;28;20468;-52
2023/04/25 08:09:48;;;;;;;2.70;0.85;;;21.90;35.00;;;;;;5028922;28;20037;-49
2023/04/25 08:12:23;;;;;;;2.55;0.98;;;22.00;34.90;;;;;;5026898;28;20041;-49
2023/04/25 08:14:50;;;;;;;1.80;0.75;;;22.00;34.70;;;;;;5047998;28;20176;-50
2023/04/25 08:17:16;;;;;;;2.47;0.70;;;22.00;34.60;;;;;;5031828;28;20036;-45
2023/04/25 08:19:42;;;;;;;3.10;0.90;;;22.00;34.50;;;;;;5029106;28;20508;-49
2023/04/25 08:22:15;;;;;;;2.70;0.80;;;21.90;34.30;;;;;;5035018;28;20408;-48
2023/04/25 08:24:52;;;;;;;3.15;0.98;;;22.00;34.30;;;;;;5030291;28;20030;-47
2023/04/25 08:27:18;;;;;;;3.13;1.00;;;22.00;34.10;;;;;;5036222;28;20063;-48
2023/04/25 08:29:44;;;;;;;1.35;0.68;;;22.00;33.90;;;;;;5032284;28;20029;-51
2023/04/25 08:32:10;;;;;;;2.25;0.80;;;22.00;33.70;;;;;;5034539;28;20030;-49
2023/04/25 08:34:42;;;;;;;3.42;0.98;;;22.00;33.60;;;;;;5033378;28;20320;-47
2023/04/25 08:37:09;;;;;;;2.45;0.85;;;22.00;33.50;;;;;;5032547;28;20085;-47
2023/04/25 08:39:45;;;;;;;2.20;0.75;;;22.00;33.40;;;;;;5033703;28;20067;-51
2023/04/25 08:42:15;;;;;;;2.13;0.73;;;22.00;33.40;;;;;;5030794;28;20395;-45
2023/04/25 08:44:41;;;;;;;1.63;0.70;;;22.00;33.30;;;;;;5031344;28;20036;-51
2023/04/25 08:47:08;;;;;;;1.13;0.40;;;22.00;33.30;;;;;;5050721;28;20435;-52
2023/04/25 08:49:55;;;;;;;2.72;0.63;;;22.10;33.50;;;;;;5050303;28;20037;-46
2023/04/25 08:52:24;;;;;;;1.65;0.63;;;22.00;33.60;;;;;;5049185;28;20119;-49
2023/04/25 08:54:52;;;;;;;1.35;0.52;;;22.00;33.80;;;;;;5057710;28;20325;-47
2023/04/25 08:57:20;;;;;;;3.00;0.93;;;22.10;34.00;;;;;;5048633;28;20124;-48
2023/04/25 08:59:48;;;;;;;1.92;0.60;;;22.10;34.70;;;;;;5054069;28;20432;-49
2023/04/25 09:02:17;;;;;;;1.83;0.60;;;22.10;34.20;;;;;;5047627;28;20025;-49
2023/04/25 09:04:45;;;;;;;1.25;0.47;;;22.20;34.20;;;;;;5044712;28;20025;-52
2023/04/25 09:07:12;;;;;;;2.20;0.75;;;22.20;34.00;;;;;;5045461;28;20061;-51
2023/04/25 09:09:39;;;;;;;2.15;0.70;;;22.20;33.80;;;;;;5047818;28;20668;-47
2023/04/25 09:12:05;;;;;;;1.55;0.65;;;22.30;33.70;;;;;;5049096;28;20104;-48
2023/04/25 09:14:31;;;;;;;1.92;0.70;;;22.30;33.50;;;;;;5047063;28;20345;-49
2023/04/25 09:17:05;;;;;;;2.80;0.75;;;22.30;33.40;;;;;;5046966;28;20025;-48
2023/04/25 09:20:09;;;;;;;1.80;0.70;;;22.30;33.30;;;;;;5047488;28;20170;-49
2023/04/25 09:22:36;;;;;;;2.80;0.93;;;22.30;33.10;;;;;;5050779;28;20052;-50
2023/04/25 09:25:13;;;;;;;2.05;0.50;;;22.30;32.90;;;;;;5051333;28;20029;-51
2023/04/25 09:27:55;;;;;;;1.65;0.73;;;22.30;32.80;;;;;;5049219;28;20427;-52
2023/04/25 09:30:46;;;;;;;1.88;0.75;;;22.40;32.70;;;;;;5058776;28;20086;-49
2023/04/25 09:33:17;;;;;;;3.30;0.80;;;22.40;32.60;;;;;;5051552;28;20029;-48
2023/04/25 09:35:52;;;;;;;2.50;0.70;;;22.40;32.50;;;;;;5051191;28;20032;-53
2023/04/25 09:38:44;;;;;;;2.95;0.98;;;22.40;32.40;;;;;;5052502;28;20112;-54
2023/04/25 09:41:24;;;;;;;1.33;0.60;;;22.40;32.20;;;;;;5063823;28;20370;-52
2023/04/25 09:43:50;;;;;;;3.40;0.80;;;22.40;32.10;;;;;;5055849;28;20091;-53
2023/04/25 09:46:18;;;;;;;1.52;0.50;;;22.40;32.00;;;;;;5051774;28;20052;-53
2023/04/25 09:48:50;;;;;;;1.80;0.55;;;22.40;32.00;;;;;;5050809;28;20521;-49
2023/04/25 09:51:19;;;;;;;2.47;0.70;;;22.40;31.90;;;;;;5051211;28;20146;-51
2023/04/25 09:53:50;;;;;;;2.47;0.80;;;22.50;31.90;;;;;;5045929;28;20040;-48
2023/04/25 09:56:27;;;;;;;2.08;0.70;;;22.50;31.80;;;;;;5046954;28;20037;-53
2023/04/25 09:58:55;;;;;;;1.65;0.60;;;22.50;31.70;;;;;;5050595;28;20482;-47
2023/04/25 10:01:23;;;;;;;0.93;0.40;;;22.50;31.60;;;;;;5051848;28;20021;-50
2023/04/25 10:04:06;;;;;;;1.35;0.55;;;22.50;31.60;;;;;;5033869;28;20021;-49
2023/04/25 10:06:54;;;;;;;1.95;0.52;;;22.50;31.60;;;;;;5049969;28;20095;-47
2023/04/25 10:09:23;;;;;;;2.00;0.65;;;22.50;31.60;;;;;;5049952;28;20037;-49
2023/04/25 10:11:50;;;;;;;1.85;0.50;;;22.50;31.50;;;;;;5052181;28;20479;-50
2023/04/25 10:14:17;;;;;;;1.65;0.65;;;22.50;32.10;;;;;;5050576;28;20089;-50
2023/04/25 10:16:42;;;;;;;2.08;0.60;;;22.50;31.40;;;;;;5050554;28;20120;-49
2023/04/25 10:19:10;;;;;;;1.73;0.57;;;22.40;31.30;;;;;;5039312;28;20424;-53
2023/04/25 10:21:45;;;;;;;2.47;0.70;;;22.40;31.20;;;;;;5063478;28;20460;-49
2023/04/25 10:24:11;;;;;;;1.92;0.60;;;22.40;31.10;;;;;;5051446;28;20025;-51
2023/04/25 10:26:37;;;;;;;1.70;0.50;;;22.40;30.90;;;;;;5051364;28;20178;-49
2023/04/25 10:29:04;;;;;;;3.63;0.70;;;22.40;30.90;;;;;;5051920;28;20116;-51
2023/04/25 10:31:30;;;;;;;2.67;0.95;;;22.40;30.90;;;;;;5049050;28;20461;-53
2023/04/25 10:33:57;;;;;;;2.42;0.73;;;22.40;31.00;;;;;;5050799;28;20320;-51
2023/04/25 10:36:25;;;;;;;2.95;2.00;;;22.40;31.10;;;;;;5050668;28;20116;-49
2023/04/25 10:38:52;;;;;;;4.65;2.38;;;22.40;31.30;;;;;;5049745;28;20072;-48
2023/04/25 10:41:20;;;;;;;5.95;2.90;;;22.40;31.40;;;;;;5050064;28;20084;-49
2023/04/25 10:43:47;;;;;;;4.47;3.13;;;22.40;31.60;;;;;;5049101;28;20060;-47
2023/04/25 10:46:24;;;;;;;5.55;3.10;;;22.30;31.80;;;;;;5059611;28;20041;-51
2023/04/25 10:48:52;;;;;;;4.60;2.72;;;22.30;32.00;;;;;;5050334;28;20482;-53
2023/04/25 10:51:21;;;;;;;4.38;2.70;;;22.30;32.20;;;;;;5045988;28;20096;-52
2023/04/25 10:54:01;;;;;;;4.40;2.75;;;22.30;32.40;;;;;;5048885;28;20036;-55
2023/04/25 10:56:29;;;;;;;4.88;2.65;;;22.40;32.50;;;;;;5049866;28;20451;-56
2023/04/25 10:59:12;;;;;;;3.65;2.40;;;22.40;32.60;;;;;;5055293;28;20377;-56
2023/04/25 11:01:44;;;;;;;4.85;2.83;;;22.40;32.80;;;;;;5053805;28;20476;-57
2023/04/25 11:04:45;;;;;;;5.95;3.10;;;22.50;32.90;;;;;;5053479;28;20444;-56
2023/04/25 11:07:25;;;;;;;5.78;3.33;;;22.60;33.00;;;;;;5044154;28;20048;-55
2023/04/25 11:09:51;;;;;;;4.63;3.22;;;22.70;32.90;;;;;;5034419;28;20103;-49
2023/04/25 11:12:17;;;;;;;4.07;2.53;;;22.80;32.80;;;;;;5042014;28;20154;-52
2023/04/25 11:14:43;;;;;;;5.25;3.30;;;22.90;33.30;;;;;;5046276;28;20460;-51
2023/04/25 11:17:10;;;;;;;4.30;2.95;;;23.00;32.50;;;;;;5043890;28;20363;-49
2023/04/25 11:19:36;;;;;;;5.82;3.25;;;23.00;32.30;;;;;;5055432;28;20032;-52
2023/04/25 11:22:03;;;;;;;5.22;3.28;;;23.10;32.20;;;;;;5050290;28;20024;-50
2023/04/25 11:24:32;;;;;;;7.07;3.40;;;23.20;32.30;;;;;;5049755;28;20432;-53
2023/04/25 11:26:59;;;;;;;5.65;3.30;;;23.20;32.20;;;;;;5033960;28;20032;-52
2023/04/25 11:29:30;;;;;;;7.07;3.60;;;23.20;32.20;;;;;;5050986;28;20073;-52
2023/04/25 11:31:57;;;;;;;4.93;3.88;;;23.30;32.10;;;;;;5050399;28;20029;-52
2023/04/25 11:34:24;;;;;;;5.65;3.67;;;23.30;32.00;;;;;;5051084;28;20443;-51
2023/04/25 11:36:52;;;;;;;6.43;4.40;;;23.30;31.90;;;;;;5050881;28;20071;-51
2023/04/25 11:39:19;;;;;;;6.63;4.43;;;23.40;31.80;;;;;;5050779;28;20033;-53
2023/04/25 11:41:46;;;;;;;7.10;4.38;;;23.40;31.80;;;;;;5049167;28;20025;-52
2023/04/25 11:44:11;;;;;;;7.15;5.35;;;23.40;31.60;;;;;;5050858;28;20340;-53
2023/04/25 11:46:37;;;;;;;10.88;6.38;;;23.50;31.60;;;;;;5071663;28;20436;-47
2023/04/25 11:49:04;;;;;;;9.95;7.00;;;23.50;31.50;;;;;;5071814;28;20460;-51
2023/04/25 11:51:37;;;;;;;12.07;7.30;;;23.50;31.50;;;;;;5043928;28;20066;-51
2023/04/25 11:54:04;;;;;;;9.07;7.60;;;23.50;31.50;;;;;;5037685;28;20399;-53
2023/04/25 11:56:31;;;;;;;14.07;8.95;;;23.60;31.50;;;;;;5049434;28;20079;-52
2023/04/25 11:59:02;;;;;;;12.27;8.52;;;23.60;31.70;;;;;;5052044;28;20029;-52
2023/04/25 12:01:30;;;;;;;11.90;8.48;;;23.60;31.70;;;;;;5048234;28;20282;-51
2023/04/25 12:03:56;;;;;;;12.25;8.98;;;23.70;31.80;;;;;;5032092;28;20106;-47
2023/04/25 12:06:27;;;;;;;12.57;8.98;;;23.70;31.80;;;;;;5032106;28;20041;-50
2023/04/25 12:09:04;;;;;;;11.00;9.10;;;23.70;31.70;;;;;;5062802;28;20028;-52
2023/04/25 12:11:31;;;;;;;11.40;8.82;;;23.80;31.60;;;;;;5048350;28;20098;-50
2023/04/25 12:14:02;;;;;;;9.50;7.50;;;23.80;31.50;;;;;;5050278;28;20057;-53
2023/04/25 12:16:28;;;;;;;8.77;6.90;;;23.80;31.40;;;;;;5047817;28;20404;-55
2023/04/25 12:18:56;;;;;;;8.43;6.10;;;23.80;31.30;;;;;;5049976;28;20041;-53
2023/04/25 12:21:22;;;;;;;7.65;5.72;;;23.80;31.10;;;;;;5051514;28;20108;-51
2023/04/25 12:23:48;;;;;;;9.98;6.13;;;23.90;31.00;;;;;;5049675;28;20025;-52
2023/04/25 12:26:14;;;;;;;8.32;6.10;;;23.90;30.90;;;;;;5049503;28;20067;-56
2023/04/25 12:28:40;;;;;;;8.82;5.28;;;23.90;30.80;;;;;;5052180;28;20028;-49
2023/04/25 12:31:06;;;;;;;8.88;6.90;;;23.90;30.90;;;;;;5043120;28;20329;-53
2023/04/25 12:33:42;;;;;;;8.55;6.40;;;24.00;31.00;;;;;;5048987;28;20401;-57
2023/04/25 12:36:09;;;;;;;8.00;5.60;;;24.00;30.90;;;;;;5050640;28;20088;-49
2023/04/25 12:38:42;;;;;;;7.35;5.28;;;24.00;30.80;;;;;;5049150;28;20025;-49
2023/04/25 12:41:08;;;;;;;8.65;5.45;;;24.00;30.70;;;;;;5050076;28;20119;-46
2023/04/25 12:43:34;;;;;;;7.35;5.53;;;24.00;30.60;;;;;;5049611;28;20108;-49
2023/04/25 12:46:00;;;;;;;11.52;6.35;;;24.00;30.60;;;;;;5048546;28;21669;-48
2023/04/25 12:48:26;;;;;;;7.85;6.05;;;23.90;30.50;;;;;;5049814;28;20413;-54
2023/04/25 12:50:52;;;;;;;8.52;5.82;;;23.90;30.50;;;;;;5048508;28;20072;-47
2023/04/25 12:53:19;;;;;;;6.75;5.95;;;23.80;30.40;;;;;;5048454;28;20025;-55
2023/04/25 12:55:46;;;;;;;8.10;6.38;;;23.80;30.40;;;;;;5042671;28;20029;-48
2023/04/25 12:58:19;;;;;;;8.38;5.95;;;23.70;30.60;;;;;;5049788;28;20095;-49
2023/04/25 13:00:46;;;;;;;8.32;6.20;;;23.70;30.70;;;;;;5047305;28;20366;-51
2023/04/25 13:03:12;;;;;;;9.20;5.40;;;23.70;30.80;;;;;;5048590;28;20021;-56